Logo AVAMET
Benvolgut visitant, si us plau, ingressa Recuperar contrasenya
AVAMET paisatges

Aiora Quesería La Vega

Dades diàries. Acumulats / Últims 30 dies disponibles

Data Temperatura (°C) Humitat rel. (%) Pressió rel. (hPa) Vent (km/h) Precipitació
Mínima Mitjana Màxima Amplitud
tèrmica
Mínima Mitjana Màxima Mínima Mitjana Màxima Predom. Mitjana Ràfega
màxima
Total
(mm)
Índex-n
Mínima Mitjana Màxima Mínima Mitjana Màxima n
0 a 1
P0 max
mm 5'
Dades mensuals acumulades fins l'últim dia disponible
06/2020 8,9 13,1 19,2 22,2 24,1 30,9 35,3 26,4   8,9 62,8 1,4
Dades anuals acumulades fins l'últim dia disponible
2020 8,9 13,1 19,2 22,2 24,1 30,9 35,3 26,4   8,9 62,8 1,4
Últims 30 dies disponibles
29-06-2020 19,1     27,2     32,9 13,8 SSW 3,5 29,5 0,0
28-06-2020 19,2     26,2     32,9 13,7 SW 2,8 20,1 0,0
27-06-2020 14,2     24,9     33,5 19,3 WSW 7,2 41,8 0,0
26-06-2020 11,3     22,9     33,4 22,1 SE 7,2 40,2 0,0
25-06-2020 12,4     23,2     34,1 21,7 SE 7,4 35,4 0,0
24-06-2020 12,8     22,6     31,9 19,1 SSW 6,8 38,6 0,0
23-06-2020 12,3     23,5     34,1 21,8 S 9,2 32,2 0,0
22-06-2020 12,9     23,6     32,8 19,9 SE 9,5 38,6 0,0
21-06-2020 11,8     24,6     35,3 23,5 SSE 8,4 43,5 0,0
20-06-2020 11,8     22,9     33,7 21,9 S 8,5 41,8 0,0
19-06-2020 17,1     21,2     28,6 11,5 ESE 8,5 38,6 0,0
18-06-2020 10,7     19,1     28,6 17,9 E 6,9 38,6 0,8
17-06-2020 11,1     19,3     27,8 16,7 WSW 7,6 59,5 0,2
16-06-2020 14,5     21,3     29,2 14,7 WNW 12,9 59,5 0,2
15-06-2020 10,5     21,4     29,8 19,3 W 9,2 43,5 0,0
14-06-2020 8,9     19,1     27,8 18,9 SSE 7,7 41,8 0,0
13-06-2020 11,9     18,2     25,3 13,4 W 14,2 51,5 0,0
12-06-2020 12,8     18,4     24,1 11,3 W 22,4 62,8 0,2
12-06-2019 3,8     5,6     8,8 5,0 80 86 94 0 0 0 N 0,0 0,0 0,0
11-06-2019 6,6     15,7     23,8 17,2 32 62 87 0 0 0 N 0,0 0,0 0,0
10-06-2019 13,3     20,9     27,2 13,9 15 32 59 0 0 0 N 0,0 0,0 0,0
09-06-2019 9,4     18,0     28,8 19,4 23 57 89 0 0 0 N 0,0 0,0 0,0
08-06-2019 4,4     14,1     23,3 18,9 49 66 99 0 0 0 N 0,0 0,0 0,0
07-06-2019 8,8     17,2     24,4 15,6 21 50 77 0 0 0 N 0,0 0,0 0,0
06-06-2019 1,6     15,6     28,3 26,7 21 51 80 0 0 0 N 0,0 0,0 0,0
05-06-2019 7,2     18,1     22,7 15,5 22 45 71 0 0 0 N 0,0 0,0 0,0
04-06-2019 13,8     23,4     33,3 19,5 11 40 68 0 0 0 N 0,0 0,0 0,0
03-06-2019 7,7     22,0     33,3 25,6 19 41 77 0 0 0 N 0,0 0,0 0,0
02-06-2019 3,8     18,8     33,3 29,5 20 47 84 0 0 0 N 0,0 0,0 0,0
01-06-2019 3,3     17,8     30,5 27,2 23 52 94 0 0 0 N 0,0 0,0 0,0
Últims 13 mesos disponibles
05/2019 0,1 5,5 14,1 14,5 18,4 24,4 31,1 31,0 33 64 86 N 0,0
04/2019 0,1 6,6 11,3 11,4 9,3 16,3 23,0 22,9 56 79 99 0,0
Tots els anys disponibles
Temperatura (°C)
Nota sobre les dades: s'avisa a l'usuari de la provisionalitat i no oficialitat d'aquestes dades
Logo AVAMET blanc
Web allotjada a Sollutia
Llicència de Creative CommonsLa web d'AVAMET i els seus continguts estan subjectes a una llicència de
Reconeixement - No Comercial - Compartir igual
Últimes estacions: Torremocha del Jiloca (Limítrofe/Soci), Orihuela - Arneva (MeteOrihuela), Enguera - Antolí (Soci), Vilamarxant - La Pedrera (Soci), Càlig (Ajuntament Soci), Quesa - Hotel La Rocha (Soci), Agres - Les Eres (Soci) - - -